Time;durP1;ratioP1;P1;durP2;ratioP2;P2;SDS_P1;SDS_P2;PMS_P1;PMS_P2;Temp;Humidity;BMP_temperature;BMP_pressure;BME280_temperature;BME280_humidity;BME280_pressure;Samples;Min_cycle;Max_cycle;Signal;HPM_P1;HPM_P2
2022/12/07 00:01:40;;;;;;;;;;;;;;;1.69;100.00;101709.78;5037036;28;19947;-59
2022/12/07 00:04:06;;;;;;;;;;;;;;;1.66;100.00;101704.75;5038269;28;19972;-61
2022/12/07 00:06:36;;;;;;;;;;;;;;;1.67;100.00;101713.44;5038432;28;20230;-60
2022/12/07 00:09:02;;;;;;;;;;;;;;;1.61;100.00;101701.63;5040011;28;20059;-61
2022/12/07 00:11:27;;;;;;;;;;;;;;;1.50;100.00;101712.78;5040632;28;19955;-61
2022/12/07 00:13:54;;;;;;;;;;;;;;;1.35;100.00;101708.59;5034900;28;19967;-59
2022/12/07 00:16:20;;;;;;;;;;;;;;;1.25;100.00;101707.50;5038554;28;19925;-61
2022/12/07 00:18:45;;;;;;;;;;;;;;;1.20;100.00;101699.13;5046483;28;19921;-61
2022/12/07 00:21:10;;;;;;;;;;;;;;;1.19;100.00;101698.31;5041967;28;19925;-61
2022/12/07 00:23:36;;;;;;;;;;;;;;;1.21;100.00;101701.63;5034194;28;19925;-61
2022/12/07 00:26:05;;;;;;;;;;;;;;;1.17;100.00;101705.41;5040063;28;19959;-61
2022/12/07 00:28:30;;;;;;;;;;;;;;;1.06;100.00;101708.72;5035001;28;19988;-61
2022/12/07 00:31:00;;;;;;;;;;;;;;;0.96;100.00;101704.19;5035316;28;19925;-61
2022/12/07 00:33:25;;;;;;;;;;;;;;;0.88;100.00;101702.06;5043967;28;20386;-61
2022/12/07 00:35:54;;;;;;;;;;;;;;;0.85;100.00;101707.47;5033481;28;19991;-61
2022/12/07 00:38:20;;;;;;;;;;;;;;;0.92;100.00;101700.06;5036830;28;19947;-61
2022/12/07 00:40:53;;;;;;;;;;;;;;;1.02;100.00;101709.00;5036142;28;19921;-61
2022/12/07 00:43:18;;;;;;;;;;;;;;;1.19;100.00;101703.53;5034455;28;19976;-61
2022/12/07 00:45:43;;;;;;;;;;;;;;;1.24;100.00;101716.25;5040999;28;19928;-61
2022/12/07 00:48:08;;;;;;;;;;;;;;;1.26;100.00;101711.78;5035333;28;19928;-59
2022/12/07 00:50:34;;;;;;;;;;;;;;;1.32;100.00;101708.78;5037707;28;19936;-60
2022/12/07 00:52:59;;;;;;;;;;;;;;;1.43;100.00;101706.28;5038935;28;19921;-61
2022/12/07 00:55:24;;;;;;;;;;;;;;;1.51;100.00;101709.22;5036058;28;19924;-60
2022/12/07 00:57:49;;;;;;;;;;;;;;;1.60;100.00;101707.78;5034819;28;19925;-60
2022/12/07 01:00:15;;;;;;;;;;;;;;;1.66;100.00;101704.75;5034258;28;19928;-61
2022/12/07 01:02:40;;;;;;;;;;;;;;;1.71;100.00;101705.28;5033472;28;19921;-61
2022/12/07 01:05:06;;;;;;;;;;;;;;;1.69;100.00;101706.34;5034690;28;20437;-61
2022/12/07 01:07:31;;;;;;;;;;;;;;;1.70;100.00;101703.63;5036202;28;20313;-61
2022/12/07 01:09:56;;;;;;;;;;;;;;;1.69;100.00;101701.94;5041483;28;19920;-60
2022/12/07 01:12:21;;;;;;;;;;;;;;;1.75;100.00;101692.81;5044236;28;20307;-61
2022/12/07 01:14:47;;;;;;;;;;;;;;;1.70;100.00;101695.78;5034109;28;19991;-58
2022/12/07 01:17:12;;;;;;;;;;;;;;;1.71;100.00;101691.38;5041010;28;19921;-59
2022/12/07 01:19:37;;;;;;;;;;;;;;;1.62;100.00;101697.22;5038512;28;19921;-61
2022/12/07 01:22:02;;;;;;;;;;;;;;;1.59;100.00;101686.97;5034334;28;20382;-61
2022/12/07 01:24:28;;;;;;;;;;;;;;;1.58;100.00;101690.53;5031692;28;20408;-61
2022/12/07 01:26:53;;;;;;;;;;;;;;;1.55;100.00;101688.09;5042946;28;20381;-59
2022/12/07 01:29:18;;;;;;;;;;;;;;;1.47;100.00;101683.38;5043399;28;20533;-61
2022/12/07 01:31:43;;;;;;;;;;;;;;;1.46;100.00;101687.78;5036490;28;20070;-62
2022/12/07 01:34:09;;;;;;;;;;;;;;;1.41;100.00;101686.41;5035129;28;19927;-60
2022/12/07 01:36:35;;;;;;;;;;;;;;;1.36;100.00;101691.13;5030760;28;20051;-62
2022/12/07 01:39:02;;;;;;;;;;;;;;;1.39;100.00;101681.28;5033070;28;19928;-62
2022/12/07 01:41:30;;;;;;;;;;;;;;;1.46;100.00;101674.72;5034278;28;19932;-61
2022/12/07 01:44:07;;;;;;;;;;;;;;;1.47;100.00;101688.63;5037119;28;20031;-62
2022/12/07 01:46:32;;;;;;;;;;;;;;;1.40;100.00;101684.75;5030405;28;19928;-60
2022/12/07 01:48:58;;;;;;;;;;;;;;;1.34;100.00;101683.38;5037444;28;19921;-62
2022/12/07 01:51:23;;;;;;;;;;;;;;;1.31;100.00;101687.03;5037627;28;19925;-61
2022/12/07 01:53:48;;;;;;;;;;;;;;;1.32;100.00;101693.09;5033101;28;20000;-61
2022/12/07 01:56:17;;;;;;;;;;;;;;;1.40;100.00;101690.81;5042794;28;20281;-60
2022/12/07 01:58:42;;;;;;;;;;;;;;;1.52;100.00;101697.00;5035479;28;19975;-62
2022/12/07 02:01:07;;;;;;;;;;;;;;;1.51;100.00;101692.72;5038793;28;19921;-62
2022/12/07 02:03:36;;;;;;;;;;;;;;;1.56;100.00;101695.03;5035660;28;19921;-61
2022/12/07 02:06:02;;;;;;;;;;;;;;;1.52;100.00;101700.47;5039448;28;20015;-62
2022/12/07 02:08:27;;;;;;;;;;;;;;;1.41;100.00;101692.47;5039863;28;20032;-61
2022/12/07 02:10:52;;;;;;;;;;;;;;;1.28;100.00;101691.63;5037100;28;20015;-62
2022/12/07 02:13:25;;;;;;;;;;;;;;;1.18;100.00;101686.16;5033658;28;19932;-59
2022/12/07 02:16:28;;;;;;;;;;;;;;;1.08;100.00;101691.16;5033775;28;19924;-62
2022/12/07 02:18:54;;;;;;;;;;;;;;;0.97;100.00;101683.16;5002902;28;19921;-62
2022/12/07 02:21:19;;;;;;;;;;;;;;;0.88;100.00;101686.41;5002844;28;20466;-61
2022/12/07 02:23:47;;;;;;;;;;;;;;;0.78;100.00;101678.31;5015285;28;19921;-60
2022/12/07 02:26:26;;;;;;;;;;;;;;;0.74;100.00;101675.97;5031144;28;19924;-61
2022/12/07 02:29:10;;;;;;;;;;;;;;;0.71;100.00;101681.41;5034353;28;20015;-61
2022/12/07 02:31:37;;;;;;;;;;;;;;;0.73;100.00;101688.19;5036000;28;19925;-62
2022/12/07 02:34:09;;;;;;;;;;;;;;;0.75;100.00;101685.47;5037926;28;19935;-61
2022/12/07 02:36:39;;;;;;;;;;;;;;;0.79;100.00;101690.41;5039635;28;20294;-61
2022/12/07 02:39:04;;;;;;;;;;;;;;;0.85;100.00;101686.56;5033163;28;19990;-61
2022/12/07 02:41:29;;;;;;;;;;;;;;;0.93;100.00;101681.72;5037331;28;20433;-61
2022/12/07 02:43:57;;;;;;;;;;;;;;;1.06;100.00;101677.38;5034142;28;19929;-60
2022/12/07 02:46:25;;;;;;;;;;;;;;;1.18;100.00;101675.69;5034061;28;19929;-60
2022/12/07 02:48:52;;;;;;;;;;;;;;;1.31;100.00;101673.13;5040433;28;19970;-61
2022/12/07 02:51:17;;;;;;;;;;;;;;;1.39;100.00;101675.22;5041794;28;19921;-61
2022/12/07 02:53:43;;;;;;;;;;;;;;;1.45;100.00;101678.28;5037672;28;20339;-61
2022/12/07 02:56:08;;;;;;;;;;;;;;;1.53;100.00;101675.16;5031223;28;19940;-61
2022/12/07 02:58:52;;;;;;;;;;;;;;;1.66;100.00;101669.94;5036355;28;20428;-61
2022/12/07 03:01:36;;;;;;;;;;;;;;;1.74;100.00;101670.25;5038238;28;19922;-61
2022/12/07 03:04:14;;;;;;;;;;;;;;;1.75;100.00;101664.91;5035165;28;19929;-60
2022/12/07 03:06:43;;;;;;;;;;;;;;;1.71;100.00;101658.22;5037507;28;19959;-61
2022/12/07 03:09:20;;;;;;;;;;;;;;;1.68;100.00;101663.66;5044172;28;19920;-61
2022/12/07 03:11:48;;;;;;;;;;;;;;;1.64;100.00;101661.34;5043195;28;20279;-61
2022/12/07 03:14:24;;;;;;;;;;;;;;;1.64;100.00;101663.97;5037408;28;19921;-59
2022/12/07 03:17:02;;;;;;;;;;;;;;;1.65;100.00;101660.41;5044989;28;20405;-61
2022/12/07 03:19:28;;;;;;;;;;;;;;;1.63;100.00;101659.69;5039611;28;19932;-61
2022/12/07 03:21:56;;;;;;;;;;;;;;;1.67;100.00;101661.13;5038829;28;19921;-60
2022/12/07 03:24:27;;;;;;;;;;;;;;;1.72;100.00;101654.66;5038836;28;19933;-58
2022/12/07 03:26:54;;;;;;;;;;;;;;;1.74;100.00;101654.56;5042352;28;19940;-61
2022/12/07 03:29:34;;;;;;;;;;;;;;;1.72;100.00;101653.81;5049102;28;20290;-61
2022/12/07 03:32:04;;;;;;;;;;;;;;;1.65;100.00;101648.19;5048610;28;19949;-61
2022/12/07 03:34:32;;;;;;;;;;;;;;;1.61;100.00;101645.88;5037296;28;19921;-62
2022/12/07 03:37:02;;;;;;;;;;;;;;;1.60;100.00;101652.91;5046798;28;19964;-60
2022/12/07 03:39:46;;;;;;;;;;;;;;;1.56;100.00;101647.97;5040676;28;19929;-62
2022/12/07 03:42:11;;;;;;;;;;;;;;;1.55;100.00;101644.53;5040126;28;19934;-62
2022/12/07 03:44:37;;;;;;;;;;;;;;;1.53;100.00;101644.63;5035147;28;19928;-61
2022/12/07 03:47:02;;;;;;;;;;;;;;;1.41;100.00;101650.66;5046192;28;19979;-60
2022/12/07 03:49:43;;;;;;;;;;;;;;;1.31;100.00;101644.38;5045751;28;20041;-60
2022/12/07 03:52:08;;;;;;;;;;;;;;;1.31;100.00;101654.81;5048111;28;19936;-61
2022/12/07 03:54:56;;;;;;;;;;;;;;;1.29;100.00;101643.63;5042295;28;19925;-61
2022/12/07 03:57:22;;;;;;;;;;;;;;;1.24;100.00;101648.31;5036311;28;20378;-60
2022/12/07 03:59:48;;;;;;;;;;;;;;;1.19;100.00;101648.66;5039679;28;19987;-61
2022/12/07 04:02:14;;;;;;;;;;;;;;;1.11;100.00;101643.09;5038460;28;20382;-60
2022/12/07 04:04:39;;;;;;;;;;;;;;;1.03;100.00;101635.78;5039031;28;19975;-59
2022/12/07 04:07:04;;;;;;;;;;;;;;;0.90;100.00;101639.28;5041883;28;20007;-60
2022/12/07 04:09:29;;;;;;;;;;;;;;;0.77;100.00;101644.44;5037922;28;19924;-61
2022/12/07 04:11:55;;;;;;;;;;;;;;;0.71;100.00;101639.63;5046120;28;19928;-61
2022/12/07 04:14:20;;;;;;;;;;;;;;;0.65;100.00;101638.25;5040150;28;19925;-61
2022/12/07 04:16:46;;;;;;;;;;;;;;;0.55;100.00;101631.94;5037011;28;20079;-61
2022/12/07 04:19:11;;;;;;;;;;;;;;;0.56;100.00;101633.63;5041694;28;19921;-61
2022/12/07 04:21:37;;;;;;;;;;;;;;;0.49;100.00;101629.72;5044270;28;20238;-61
2022/12/07 04:24:02;;;;;;;;;;;;;;;0.40;100.00;101625.94;5032966;28;19932;-60
2022/12/07 04:26:27;;;;;;;;;;;;;;;0.31;100.00;101621.28;5043325;28;20019;-61
2022/12/07 04:28:53;;;;;;;;;;;;;;;0.20;100.00;101629.78;5032704;28;20260;-59
2022/12/07 04:31:18;;;;;;;;;;;;;;;0.06;100.00;101627.22;5040863;28;20305;-59
2022/12/07 04:33:43;;;;;;;;;;;;;;;-0.07;100.00;101620.13;5042563;28;20139;-61
2022/12/07 04:36:08;;;;;;;;;;;;;;;-0.12;100.00;101623.97;5038623;28;20354;-60
2022/12/07 04:38:34;;;;;;;;;;;;;;;-0.17;100.00;101620.78;5035347;28;20350;-61
2022/12/07 04:41:04;;;;;;;;;;;;;;;-0.27;100.00;101626.56;5040930;28;19921;-61
2022/12/07 04:43:29;;;;;;;;;;;;;;;-0.33;100.00;101621.72;5038186;28;20480;-61
2022/12/07 04:45:54;;;;;;;;;;;;;;;-0.39;100.00;101622.06;5035786;28;19921;-61
2022/12/07 04:48:19;;;;;;;;;;;;;;;-0.44;100.00;101626.72;5032504;28;19921;-62
2022/12/07 04:50:48;;;;;;;;;;;;;;;-0.40;100.00;101630.00;5044594;28;20008;-62
2022/12/07 04:53:13;;;;;;;;;;;;;;;-0.20;100.00;101626.19;5035109;28;19921;-62
2022/12/07 04:55:38;;;;;;;;;;;;;;;-0.01;100.00;101626.75;5031305;28;19974;-62
2022/12/07 04:58:04;;;;;;;;;;;;;;;0.04;100.00;101631.69;5041622;28;19920;-62
2022/12/07 05:00:29;;;;;;;;;;;;;;;0.03;100.00;101628.25;5040092;28;19932;-61
2022/12/07 05:02:54;;;;;;;;;;;;;;;0.25;100.00;101625.13;5037438;28;20066;-62
2022/12/07 05:05:19;;;;;;;;;;;;;;;0.41;100.00;101627.59;5036440;28;19925;-61
2022/12/07 05:07:44;;;;;;;;;;;;;;;0.53;100.00;101632.03;5040334;28;19921;-61
2022/12/07 05:10:10;;;;;;;;;;;;;;;0.62;100.00;101625.38;5036077;28;19995;-59
2022/12/07 05:12:35;;;;;;;;;;;;;;;0.62;100.00;101631.47;5039481;28;20297;-60
2022/12/07 05:15:00;;;;;;;;;;;;;;;0.62;100.00;101633.22;5042388;28;19925;-60
2022/12/07 05:17:25;;;;;;;;;;;;;;;0.55;100.00;101630.19;5042483;28;19941;-60
2022/12/07 05:19:51;;;;;;;;;;;;;;;0.60;100.00;101632.50;5036908;28;19925;-58
2022/12/07 05:22:16;;;;;;;;;;;;;;;0.59;100.00;101631.63;5041089;28;19925;-60
2022/12/07 05:24:41;;;;;;;;;;;;;;;0.63;100.00;101632.28;5039255;28;19924;-62
2022/12/07 05:27:07;;;;;;;;;;;;;;;0.64;100.00;101628.75;5035065;28;20291;-61
2022/12/07 05:29:32;;;;;;;;;;;;;;;0.62;100.00;101631.47;5037851;28;19948;-60
2022/12/07 05:31:57;;;;;;;;;;;;;;;0.65;100.00;101635.66;5040304;28;20004;-60
2022/12/07 05:34:22;;;;;;;;;;;;;;;0.71;100.00;101623.97;5051397;28;20019;-60
2022/12/07 05:36:48;;;;;;;;;;;;;;;0.75;100.00;101623.69;5034667;28;20010;-61
2022/12/07 05:39:13;;;;;;;;;;;;;;;0.76;100.00;101630.56;5032686;28;19921;-62
2022/12/07 05:44:22;;;;;;;;;;;;;;;0.72;100.00;101623.03;5034138;28;19974;-61
2022/12/07 05:46:48;;;;;;;;;;;;;;;0.77;100.00;101621.78;5036097;28;19930;-61
2022/12/07 05:49:13;;;;;;;;;;;;;;;0.92;100.00;101622.56;5035473;28;20020;-61
2022/12/07 05:51:38;;;;;;;;;;;;;;;0.88;100.00;101615.88;5040560;28;20432;-61
2022/12/07 05:54:03;;;;;;;;;;;;;;;0.82;100.00;101618.88;5039933;28;19940;-61
2022/12/07 05:56:29;;;;;;;;;;;;;;;0.85;100.00;101616.94;5036393;28;19928;-60
2022/12/07 06:01:38;;;;;;;;;;;;;;;0.78;100.00;101615.63;5040852;28;19935;-59
2022/12/07 06:04:03;;;;;;;;;;;;;;;0.69;100.00;101605.78;5031746;28;20051;-60
2022/12/07 06:06:28;;;;;;;;;;;;;;;0.55;100.00;101611.06;5043196;28;19976;-60
2022/12/07 06:08:53;;;;;;;;;;;;;;;0.51;100.00;101599.16;5043060;28;19956;-59
2022/12/07 06:14:03;;;;;;;;;;;;;;;0.28;100.00;101605.81;5041204;28;19932;-60
2022/12/07 06:16:28;;;;;;;;;;;;;;;0.20;100.00;101601.91;5039320;28;19929;-60
2022/12/07 06:18:53;;;;;;;;;;;;;;;0.15;100.00;101611.81;5045649;28;19928;-60
2022/12/07 06:21:18;;;;;;;;;;;;;;;0.10;100.00;101613.03;5042925;28;20328;-60
2022/12/07 06:23:44;;;;;;;;;;;;;;;0.12;100.00;101605.94;5036476;28;19953;-60
2022/12/07 06:26:09;;;;;;;;;;;;;;;0.10;100.00;101611.25;5039330;28;19939;-60
2022/12/07 06:28:34;;;;;;;;;;;;;;;0.07;100.00;101615.84;5045962;28;19929;-60
2022/12/07 06:31:00;;;;;;;;;;;;;;;0.06;100.00;101615.00;5037127;28;19921;-62
2022/12/07 06:33:26;;;;;;;;;;;;;;;0.08;100.00;101623.56;5039313;28;19921;-59
2022/12/07 06:35:51;;;;;;;;;;;;;;;0.11;100.00;101630.38;5039229;28;19980;-60
2022/12/07 06:38:16;;;;;;;;;;;;;;;0.11;100.00;101620.78;5039749;28;19971;-60
2022/12/07 06:40:42;;;;;;;;;;;;;;;0.08;100.00;101630.53;5038694;28;19921;-61
2022/12/07 06:43:07;;;;;;;;;;;;;;;0.05;100.00;101634.16;5046664;28;19924;-60
2022/12/07 06:45:33;;;;;;;;;;;;;;;-0.01;100.00;101619.75;5036497;28;20007;-60
2022/12/07 06:47:58;;;;;;;;;;;;;;;-0.09;100.00;101621.16;5040988;28;20008;-60
2022/12/07 06:50:23;;;;;;;;;;;;;;;-0.27;100.00;101623.13;5043651;28;19940;-61
2022/12/07 06:52:48;;;;;;;;;;;;;;;-0.41;100.00;101628.31;5040793;28;19929;-61
2022/12/07 06:55:14;;;;;;;;;;;;;;;-0.54;100.00;101618.63;5041631;28;20330;-61
2022/12/07 06:57:39;;;;;;;;;;;;;;;-0.66;100.00;101624.56;5044664;28;19937;-60
2022/12/07 07:00:04;;;;;;;;;;;;;;;-0.78;100.00;101615.69;5042325;28;20321;-60
2022/12/07 07:02:30;;;;;;;;;;;;;;;-0.84;100.00;101633.47;5037159;28;20279;-61
2022/12/07 07:04:55;;;;;;;;;;;;;;;-0.91;100.00;101630.34;5035691;28;21069;-61
2022/12/07 07:07:20;;;;;;;;;;;;;;;-0.98;100.00;101629.03;5038161;28;19925;-61
2022/12/07 07:09:45;;;;;;;;;;;;;;;-1.08;100.00;101631.34;5040641;28;19924;-61
2022/12/07 07:12:11;;;;;;;;;;;;;;;-1.14;100.00;101629.91;5037527;28;20007;-59
2022/12/07 07:14:36;;;;;;;;;;;;;;;-1.22;100.00;101632.09;5044046;28;19960;-61
2022/12/07 07:17:01;;;;;;;;;;;;;;;-1.31;100.00;101632.66;5042919;28;20008;-61
2022/12/07 07:19:26;;;;;;;;;;;;;;;-1.40;100.00;101625.34;5040371;28;19925;-58
2022/12/07 07:21:52;;;;;;;;;;;;;;;-1.48;100.00;101633.56;5031066;28;19929;-60
2022/12/07 07:24:17;;;;;;;;;;;;;;;-1.51;100.00;101631.13;5035686;28;20290;-59
2022/12/07 07:26:42;;;;;;;;;;;;;;;-1.58;100.00;101625.44;5031398;28;20266;-60
2022/12/07 07:29:07;;;;;;;;;;;;;;;-1.64;100.00;101630.16;5039704;28;19960;-59
2022/12/07 07:31:35;;;;;;;;;;;;;;;-1.73;100.00;101626.25;5038267;28;19967;-58
2022/12/07 07:34:00;;;;;;;;;;;;;;;-1.68;100.00;101631.22;5035180;28;19928;-59
2022/12/07 07:36:25;;;;;;;;;;;;;;;-1.64;100.00;101636.19;5035798;28;19921;-60
2022/12/07 07:38:50;;;;;;;;;;;;;;;-1.65;100.00;101634.50;5033804;28;20160;-60
2022/12/07 07:41:16;;;;;;;;;;;;;;;-1.70;100.00;101633.91;5038745;28;19925;-61
2022/12/07 07:43:41;;;;;;;;;;;;;;;-1.78;100.00;101642.13;5041109;28;20286;-61
2022/12/07 07:46:07;;;;;;;;;;;;;;;-1.83;100.00;101641.53;5040482;28;20015;-61
2022/12/07 07:48:32;;;;;;;;;;;;;;;-1.84;100.00;101639.00;5039514;28;20059;-60
2022/12/07 07:50:57;;;;;;;;;;;;;;;-1.87;100.00;101644.38;5036096;28;19966;-61
2022/12/07 07:53:22;;;;;;;;;;;;;;;-1.90;100.00;101648.00;5040431;28;19917;-61
2022/12/07 07:55:52;;;;;;;;;;;;;;;-1.96;100.00;101645.72;5035048;28;19929;-61
2022/12/07 07:58:17;;;;;;;;;;;;;;;-2.03;100.00;101642.59;5031235;28;19947;-59
2022/12/07 08:00:42;;;;;;;;;;;;;;;-2.02;100.00;101639.06;5028166;28;20402;-59
2022/12/07 08:03:08;;;;;;;;;;;;;;;-1.93;100.00;101649.94;5032494;28;19928;-60
2022/12/07 08:05:33;;;;;;;;;;;;;;;-1.98;100.00;101648.41;5030215;28;19928;-61
2022/12/07 08:07:58;;;;;;;;;;;;;;;-1.99;100.00;101646.72;5041769;28;19964;-61
2022/12/07 08:10:23;;;;;;;;;;;;;;;-2.00;100.00;101647.63;5032071;28;20398;-61
2022/12/07 08:15:33;;;;;;;;;;;;;;;-2.00;100.00;101644.19;5037870;28;19931;-61
2022/12/07 08:17:58;;;;;;;;;;;;;;;-2.04;100.00;101643.53;5043380;28;19920;-61
2022/12/07 08:20:24;;;;;;;;;;;;;;;-2.05;100.00;101636.63;5043042;28;20397;-61
2022/12/07 08:22:49;;;;;;;;;;;;;;;-2.04;100.00;101642.66;5038498;28;19949;-62
2022/12/07 08:25:14;;;;;;;;;;;;;;;-2.05;100.00;101641.00;5045048;28;20361;-62
2022/12/07 08:27:39;;;;;;;;;;;;;;;-2.08;100.00;101636.81;5035312;28;19943;-60
2022/12/07 08:30:05;;;;;;;;;;;;;;;-2.03;100.00;101649.56;5036977;28;19920;-61
2022/12/07 08:32:30;;;;;;;;;;;;;;;-1.79;100.00;101645.63;5033821;28;20282;-61
2022/12/07 08:34:55;;;;;;;;;;;;;;;-1.65;100.00;101652.72;5039023;28;19925;-61
2022/12/07 08:37:21;;;;;;;;;;;;;;;-1.66;100.00;101653.63;5033917;28;19932;-62
2022/12/07 08:39:46;;;;;;;;;;;;;;;-1.72;100.00;101647.94;5040827;28;20030;-61
2022/12/07 08:42:11;;;;;;;;;;;;;;;-1.59;100.00;101649.78;5039611;28;20404;-61
2022/12/07 08:44:36;;;;;;;;;;;;;;;-1.50;100.00;101643.22;5035167;28;20469;-62
2022/12/07 08:47:05;;;;;;;;;;;;;;;-1.46;100.00;101642.13;5037900;28;20144;-62
2022/12/07 08:49:36;;;;;;;;;;;;;;;-1.46;100.00;101644.72;5033929;28;19917;-62
2022/12/07 08:52:03;;;;;;;;;;;;;;;-1.44;100.00;101645.50;5037326;28;19921;-61
2022/12/07 08:54:29;;;;;;;;;;;;;;;-1.42;100.00;101642.78;5043499;28;20007;-61
2022/12/07 08:56:54;;;;;;;;;;;;;;;-1.17;100.00;101640.50;5044719;28;20338;-61
2022/12/07 08:59:20;;;;;;;;;;;;;;;-1.02;100.00;101640.56;5040426;28;19920;-63
2022/12/07 09:01:45;;;;;;;;;;;;;;;-0.91;100.00;101635.56;5040006;28;19928;-62
2022/12/07 09:04:11;;;;;;;;;;;;;;;-0.70;100.00;101636.94;5044350;28;19928;-61
2022/12/07 09:06:36;;;;;;;;;;;;;;;-0.66;100.00;101634.97;5036976;28;19925;-62
2022/12/07 09:09:02;;;;;;;;;;;;;;;-0.63;100.00;101628.75;5038408;28;19948;-61
2022/12/07 09:11:28;;;;;;;;;;;;;;;-0.60;100.00;101632.00;5034588;28;19929;-61
2022/12/07 09:13:53;;;;;;;;;;;;;;;-0.61;100.00;101626.91;5040403;28;19920;-62
2022/12/07 09:16:18;;;;;;;;;;;;;;;-0.57;100.00;101631.00;5032984;28;19925;-63
2022/12/07 09:18:44;;;;;;;;;;;;;;;-0.50;100.00;101632.31;5038628;28;19939;-62
2022/12/07 09:21:09;;;;;;;;;;;;;;;-0.48;100.00;101633.91;5041280;28;19925;-63
2022/12/07 09:23:35;;;;;;;;;;;;;;;-0.32;100.00;101632.97;5038406;28;19922;-63
2022/12/07 09:26:00;;;;;;;;;;;;;;;-0.30;100.00;101631.13;5033717;28;19928;-63
2022/12/07 09:28:26;;;;;;;;;;;;;;;-0.31;100.00;101630.28;5030630;28;19925;-62
2022/12/07 09:30:51;;;;;;;;;;;;;;;-0.27;100.00;101636.97;5043981;28;20406;-62
2022/12/07 09:33:16;;;;;;;;;;;;;;;-0.21;100.00;101640.97;5039383;28;19983;-62
2022/12/07 09:35:46;;;;;;;;;;;;;;;-0.13;100.00;101630.09;5039467;28;20660;-61
2022/12/07 09:38:12;;;;;;;;;;;;;;;-0.04;100.00;101627.75;5035571;28;20297;-61
2022/12/07 09:40:37;;;;;;;;;;;;;;;0.08;100.00;101630.53;5039939;28;19929;-62
2022/12/07 09:43:03;;;;;;;;;;;;;;;0.13;100.00;101625.88;5040234;28;19925;-61
2022/12/07 09:45:33;;;;;;;;;;;;;;;0.20;100.00;101635.00;5034734;28;20370;-61
2022/12/07 09:48:02;;;;;;;;;;;;;;;0.26;100.00;101628.56;5035651;28;20412;-61
2022/12/07 09:50:28;;;;;;;;;;;;;;;0.36;100.00;101633.13;5036531;28;20569;-61
2022/12/07 09:52:55;;;;;;;;;;;;;;;0.43;100.00;101630.94;5038326;28;19928;-61
2022/12/07 09:55:26;;;;;;;;;;;;;;;0.53;100.00;101631.22;5033493;28;19917;-61
2022/12/07 09:57:52;;;;;;;;;;;;;;;0.57;100.00;101625.69;5035913;28;20385;-61
2022/12/07 10:00:18;;;;;;;;;;;;;;;0.64;100.00;101623.50;5040666;28;19936;-62
2022/12/07 10:02:46;;;;;;;;;;;;;;;0.74;100.00;101629.00;5043236;28;20007;-61
2022/12/07 10:05:16;;;;;;;;;;;;;;;0.75;100.00;101621.06;5045890;28;20366;-61
2022/12/07 10:07:42;;;;;;;;;;;;;;;0.82;100.00;101621.50;5037077;28;19978;-61
2022/12/07 10:10:15;;;;;;;;;;;;;;;0.90;100.00;101618.38;5046902;28;19924;-61
2022/12/07 10:12:52;;;;;;;;;;;;;;;0.99;100.00;101609.94;5040320;28;20008;-61
2022/12/07 10:15:17;;;;;;;;;;;;;;;1.05;100.00;101604.31;5034601;28;19921;-58
2022/12/07 10:17:48;;;;;;;;;;;;;;;1.10;100.00;101602.22;5034227;28;20011;-61
2022/12/07 10:20:24;;;;;;;;;;;;;;;1.18;100.00;101586.03;5034075;28;19928;-60
2022/12/07 10:22:58;;;;;;;;;;;;;;;1.22;100.00;101575.28;5039284;28;19925;-61
2022/12/07 10:25:25;;;;;;;;;;;;;;;1.33;100.00;101578.97;5037947;28;19921;-61
2022/12/07 10:28:17;;;;;;;;;;;;;;;1.38;100.00;101571.63;5038022;28;19924;-59
2022/12/07 10:30:48;;;;;;;;;;;;;;;1.41;100.00;101560.97;5041194;28;20374;-61
2022/12/07 10:33:49;;;;;;;;;;;;;;;1.45;100.00;101558.06;5036197;28;20026;-61
2022/12/07 10:36:18;;;;;;;;;;;;;;;1.57;100.00;101555.53;5001246;28;19921;-61
2022/12/07 10:38:44;;;;;;;;;;;;;;;1.69;100.00;101549.44;5029999;28;19921;-61
2022/12/07 10:41:09;;;;;;;;;;;;;;;1.78;100.00;101550.56;5042513;28;19921;-59
2022/12/07 10:43:35;;;;;;;;;;;;;;;1.84;100.00;101547.53;5037644;28;19928;-61
2022/12/07 10:46:06;;;;;;;;;;;;;;;1.97;100.00;101537.88;5033195;28;20301;-61
2022/12/07 10:48:49;;;;;;;;;;;;;;;2.06;100.00;101534.59;5032980;28;20014;-59
2022/12/07 10:51:29;;;;;;;;;;;;;;;2.08;100.00;101522.25;5044460;28;20033;-61
2022/12/07 10:54:18;;;;;;;;;;;;;;;2.11;100.00;101515.94;5043071;28;20376;-60
2022/12/07 10:56:44;;;;;;;;;;;;;;;2.16;100.00;101508.59;5040949;28;20378;-61
2022/12/07 10:59:09;;;;;;;;;;;;;;;2.27;100.00;101500.81;5044949;28;19928;-61
2022/12/07 11:01:55;;;;;;;;;;;;;;;2.36;100.00;101502.75;5043208;28;20366;-61
2022/12/07 11:04:23;;;;;;;;;;;;;;;2.41;100.00;101499.81;5041271;28;20382;-58
2022/12/07 11:06:58;;;;;;;;;;;;;;;2.49;100.00;101499.25;5040111;28;19975;-60
2022/12/07 11:09:23;;;;;;;;;;;;;;;2.51;100.00;101499.97;5043265;28;19927;-60
2022/12/07 11:12:09;;;;;;;;;;;;;;;2.60;100.00;101488.78;5040071;28;20004;-60
2022/12/07 11:14:34;;;;;;;;;;;;;;;2.68;100.00;101481.19;5034838;28;19925;-61
2022/12/07 11:17:09;;;;;;;;;;;;;;;2.69;100.00;101471.56;5041910;28;20020;-61
2022/12/07 11:19:51;;;;;;;;;;;;;;;2.69;100.00;101475.03;5044266;28;19975;-61
2022/12/07 11:22:28;;;;;;;;;;;;;;;2.71;100.00;101467.03;5040118;28;19921;-61
2022/12/07 11:25:01;;;;;;;;;;;;;;;2.78;100.00;101460.38;5039826;28;19978;-61
2022/12/07 11:27:47;;;;;;;;;;;;;;;2.77;100.00;101463.97;5043138;28;20012;-59
2022/12/07 11:30:23;;;;;;;;;;;;;;;2.77;100.00;101466.59;5034933;28;19928;-61
2022/12/07 11:32:53;;;;;;;;;;;;;;;2.83;100.00;101458.25;5036004;28;19920;-61
2022/12/07 11:35:30;;;;;;;;;;;;;;;2.87;100.00;101453.63;5043590;28;20449;-61
2022/12/07 11:37:59;;;;;;;;;;;;;;;2.92;100.00;101448.84;5040397;28;19960;-61
2022/12/07 11:40:27;;;;;;;;;;;;;;;3.03;100.00;101446.25;5036772;28;19922;-61
2022/12/07 11:42:53;;;;;;;;;;;;;;;3.03;100.00;101435.78;5038712;28;19929;-62
2022/12/07 11:45:30;;;;;;;;;;;;;;;3.13;100.00;101436.72;5037664;28;20349;-61
2022/12/07 11:48:10;;;;;;;;;;;;;;;3.17;100.00;101442.56;5039367;28;20433;-60
2022/12/07 11:50:42;;;;;;;;;;;;;;;3.27;100.00;101439.09;5041185;28;19921;-61
2022/12/07 11:53:07;;;;;;;;;;;;;;;3.22;100.00;101420.28;5043701;28;19931;-60
2022/12/07 11:55:51;;;;;;;;;;;;;;;3.20;100.00;101427.44;5039019;28;20019;-60
2022/12/07 11:58:32;;;;;;;;;;;;;;;3.16;100.00;101425.19;5040191;28;20011;-61
2022/12/07 12:01:07;;;;;;;;;;;;;;;2.89;100.00;101428.13;5036686;28;19928;-60
2022/12/07 12:03:38;;;;;;;;;;;;;;;2.51;100.00;101426.66;5038750;28;19925;-61
2022/12/07 12:06:03;;;;;;;;;;;;;;;2.36;100.00;101419.00;5032783;28;20368;-60
2022/12/07 12:08:36;;;;;;;;;;;;;;;2.30;100.00;101414.22;5032444;28;20392;-60
2022/12/07 12:11:34;;;;;;;;;;;;;;;2.28;100.00;101404.81;5038423;28;19979;-62
2022/12/07 12:14:05;;;;;;;;;;;;;;;2.26;100.00;101404.94;5019233;28;20263;-62
2022/12/07 12:16:31;;;;;;;;;;;;;;;2.28;100.00;101395.19;5042284;28;19917;-62
2022/12/07 12:19:02;;;;;;;;;;;;;;;2.35;100.00;101393.78;5038400;28;19928;-61
2022/12/07 12:21:28;;;;;;;;;;;;;;;2.32;100.00;101383.56;5043438;28;19944;-62
2022/12/07 12:24:08;;;;;;;;;;;;;;;2.27;100.00;101377.81;5046320;28;20285;-60
2022/12/07 12:26:36;;;;;;;;;;;;;;;2.26;100.00;101378.75;5034680;28;20519;-60
2022/12/07 12:29:03;;;;;;;;;;;;;;;2.27;100.00;101385.69;5042385;28;19952;-61
2022/12/07 12:31:36;;;;;;;;;;;;;;;2.27;100.00;101393.53;5041369;28;19921;-61
2022/12/07 12:34:03;;;;;;;;;;;;;;;2.35;100.00;101385.06;5032725;28;19928;-60
2022/12/07 12:36:34;;;;;;;;;;;;;;;2.59;100.00;101378.00;5036991;28;19925;-59
2022/12/07 12:39:13;;;;;;;;;;;;;;;2.87;100.00;101385.53;5037504;28;19920;-61
2022/12/07 12:41:39;;;;;;;;;;;;;;;3.09;100.00;101377.63;5038673;28;20394;-61
2022/12/07 12:44:19;;;;;;;;;;;;;;;3.20;100.00;101366.31;5036865;28;19917;-61
2022/12/07 12:46:44;;;;;;;;;;;;;;;3.27;100.00;101357.00;5044869;28;20219;-58
2022/12/07 12:49:16;;;;;;;;;;;;;;;3.28;100.00;101354.28;5049057;28;19948;-58